• Join FlightAware (Why Join?)
  • Login
  • US Flag 
11:17AM EDT


 

Airport Tracker/Info


-or-


 

Live Flight TrackerFlight Track Log ✈ SWA2353 ✈ 06-May-2013 ✈ KMDW - KSTL

Flight Track Log - Related Links

Times and Time Zones

All times are in EDT time to prevent confusion due to time zone crossing. See the SWA2353 flight status page for this flight to view local times or setup timezone preferences in your user account.

Time Position Orientation Groundspeed Altitude Reporting Facility
EDT Latitude Longitude Course Direction KTS MPH feet Rate Location/Type
09:44PM 41.8000 -87.7167 197° South 154 177 2,100  Level Chicago TRACON
09:45PM 41.7203 -87.7494 197° South 234 269 6,100 2,880 Climbing Chicago Center
09:46PM 41.6561 -87.8081 214° Southwest 271 312 9,600 2,820 Climbing Chicago Center
09:47PM 41.5842 -87.8717 213° Southwest 307 353 12,000 1,800 Climbing Chicago Center
09:48PM 41.4894 -87.9286 204° Southwest 324 373 13,400 2,700 Climbing Chicago Center
09:49PM 41.3908 -87.9544 191° South 350 403 17,500 3,660 Climbing Chicago Center
09:50PM 41.2875 -87.9811 191° South 368 423 21,000 2,760 Climbing Chicago Center
09:53PM 41.0803 -88.0356 191° South 376 433 26,000 1,620 Climbing Chicago Center
09:54PM 40.9692 -88.0647 191° South 403 464 26,000  Level Chicago Center
09:55PM 40.8567 -88.0931 191° South 410 472 26,000  Level Chicago Center
09:56PM 40.7447 -88.1214 191° South 411 473 26,000  Level Chicago Center
09:57PM 40.6331 -88.1506 191° South 411 473 26,000  Level Chicago Center
09:58PM 40.5225 -88.1917 196° South 414 476 26,000  Level Chicago Center
09:59PM 40.3919 -88.2531 200° South 416 479 26,000  Level Chicago Center
10:00PM 40.2817 -88.3061 200° South 422 486 26,000  Level Chicago Center
10:01PM 40.1803 -88.3533 200° South 422 486 26,000  Level Chicago Center
10:02PM 40.0697 -88.4053 200° South 422 486 26,000  Level Chicago Center
10:03PM 39.9581 -88.4561 199° South 425 489 26,000  Level Kansas City Center
10:05PM 39.7322 -88.5617 200° South 430 495 26,000  Level Kansas City Center
10:06PM 39.6181 -88.6147 200° South 433 498 26,000  Level Kansas City Center
10:07PM 39.5219 -88.7022 215° Southwest 426 490 26,000  Level Kansas City Center
10:08PM 39.4300 -88.7997 219° Southwest 426 490 26,000  Level Kansas City Center
10:09PM 39.3378 -88.9028 221° Southwest 430 495 26,000 -1,080 Level Kansas City Center
10:10PM 39.2475 -88.9994 220° Southwest 426 490 23,900 -2,460 Descending Kansas City Center
10:11PM 39.1439 -89.1083 219° Southwest 415 478 21,100 -2,460 Descending Kansas City Center
10:12PM 39.0814 -89.2169 233° Southwest 391 450 18,900 -2,160 Descending Kansas City Center
10:13PM 39.0522 -89.3436 254° West 373 429 16,800 -2,160 Descending Kansas City Center
10:14PM 39.0242 -89.4675 254° West 366 421 14,600 -2,280 Descending Kansas City Center
10:15PM 38.9914 -89.5969 252° West 358 412 12,200 -2,160 Descending Kansas City Center
10:16PM 38.9244 -89.6881 227° Southwest 350 403 10,200 -1,620 Descending Kansas City Center
10:17PM 38.8753 -89.7792 235° Southwest 334 384 9,000 -1,380 Descending Kansas City Center
10:18PM 38.8272 -89.8706 236° Southwest 315 362 7,500 -1,560 Descending Kansas City Center
10:19PM 38.7811 -89.9589 236° Southwest 303 349 5,900 -1,260 Descending Kansas City Center
10:20PM 38.7350 -90.0456 236° Southwest 299 344 5,000 -660 Descending Kansas City Center
10:21PM 38.7050 -90.1197 243° Southwest 262 302 4,600 -900 Descending Kansas City Center
10:22PM 38.7022 -90.1956 267° West 233 268 3,200 -1,260 Descending Kansas City Center
10:23PM 38.6992 -90.2600 267° West 207 238 2,100 -1,020 Descending Kansas City Center
10:24PM 38.7225 -90.3064 303° West 152 175 1,200 -780 Descending Kansas City Center
10:25PM 38.7411 -90.3442 302° West 137 158 600 -600 Descending Kansas City Center
10:27PM 38.7333 -90.3667 169° South  Level FlightAware Approximate
10:34PM 38.7487 -90.3700 169° South  Level Estimated